Pasman, Argentina
Current Conditions -  °F | °C
As of 1:00 PM on Wednesday 26 Nov 2014 (Local Time) from SAZM Reporting Station
Scattered Clouds Scattered Clouds  
Wind Chill: 26°   Ceiling: Unl
Heat Index: 26°   Visibility: 6mi
Dew Point: 10°   Wind: 17mph
Humidity: 36%   Direction: 340°NNW
Pressure: 29.88"   Gusts: NA
Location:  37.23°S, 62.17°W
Report Text: SAZM 261600Z 34015KT 9999 FEW020 SCT20026/10 Q1012
Loading
Personal Weather Stations






























Interactive Weather Map New forecast layout! Learn more

10-Day Weather Forecast

Advertisements
Track Severe Weather on mobile